Time;durP1;ratioP1;P1;durP2;ratioP2;P2;SDS_P1;SDS_P2;PMS_P1;PMS_P2;Temp;Humidity;BMP_temperature;BMP_pressure;BME280_temperature;BME280_humidity;BME280_pressure;Samples;Min_cycle;Max_cycle;Signal;HPM_P1;HPM_P2
2022/07/21 00:00:03;;;;;;;1.80;1.53;;;21.50;83.80;;;;;;5054971;28;20463;-89
2022/07/21 00:02:30;;;;;;;0.90;0.80;;;21.50;84.20;;;;;;5053048;28;21151;-89
2022/07/21 00:04:57;;;;;;;2.03;1.53;;;21.40;87.00;;;;;;5053791;28;20512;-86
2022/07/21 00:07:24;;;;;;;6.83;1.47;;;21.50;88.70;;;;;;5059669;28;20525;-87
2022/07/21 00:09:53;;;;;;;1.20;1.10;;;21.40;90.50;;;;;;5052576;28;20467;-87
2022/07/21 00:12:20;;;;;;;2.43;1.33;;;21.10;91.60;;;;;;5053933;28;20467;-88
2022/07/21 00:14:47;;;;;;;1.73;1.63;;;21.00;91.90;;;;;;5054292;28;20538;-89
2022/07/21 00:17:15;;;;;;;1.10;1.10;;;20.80;93.40;;;;;;5060307;28;20488;-89
2022/07/21 00:19:42;;;;;;;1.83;1.73;;;20.70;95.40;;;;;;5061220;28;20513;-88
2022/07/21 00:22:09;;;;;;;1.47;1.47;;;20.70;95.30;;;;;;5058377;28;20495;-89
2022/07/21 00:24:36;;;;;;;1.47;1.33;;;20.60;95.60;;;;;;5062809;28;21035;-87
2022/07/21 00:27:04;;;;;;;1.57;1.47;;;20.50;96.40;;;;;;5054105;28;20510;-88
2022/07/21 00:29:31;;;;;;;1.67;1.57;;;20.50;96.90;;;;;;5052285;28;20460;-88
2022/07/21 00:31:59;;;;;;;2.07;1.40;;;20.50;98.60;;;;;;5050367;28;20477;-87
2022/07/21 00:34:27;;;;;;;3.80;1.30;;;20.60;99.90;;;;;;5061301;28;20543;-90
2022/07/21 00:36:54;;;;;;;1.83;1.50;;;20.60;99.90;;;;;;5057387;28;20455;-89
2022/07/21 00:39:21;;;;;;;1.57;1.47;;;20.70;99.90;;;;;;5057724;28;20469;-89
2022/07/21 00:41:48;;;;;;;2.10;2.00;;;20.70;99.90;;;;;;5057556;28;20471;-87
2022/07/21 00:44:24;;;;;;;2.00;1.80;;;20.60;99.90;;;;;;5060600;28;20802;-87
2022/07/21 00:46:51;;;;;;;2.27;2.10;;;20.40;99.90;;;;;;5051013;28;20467;-87
2022/07/21 00:49:19;;;;;;;3.70;1.87;;;20.30;99.90;;;;;;5057203;28;20471;-89
2022/07/21 00:51:46;;;;;;;3.00;1.73;;;20.20;99.90;;;;;;5049936;28;21164;-87
2022/07/21 00:54:15;;;;;;;1.70;1.57;;;20.10;99.90;;;;;;5059259;28;20521;-89
2022/07/21 00:56:42;;;;;;;1.70;1.60;;;20.10;99.90;;;;;;5057579;28;20509;-89
2022/07/21 00:59:09;;;;;;;1.47;1.30;;;20.10;99.90;;;;;;5064975;28;20878;-89
2022/07/21 01:01:38;;;;;;;2.40;1.70;;;20.20;99.90;;;;;;5056322;28;20467;-87
2022/07/21 01:04:05;;;;;;;1.73;1.33;;;20.30;99.90;;;;;;5055907;28;20587;-87
2022/07/21 01:06:32;;;;;;;2.27;1.60;;;20.30;99.90;;;;;;5059955;28;20458;-89
2022/07/21 01:08:59;;;;;;;1.70;1.60;;;20.40;99.90;;;;;;5058724;28;20455;-89
2022/07/21 01:11:26;;;;;;;2.13;1.70;;;20.50;99.90;;;;;;5054471;28;20506;-89
2022/07/21 01:13:53;;;;;;;1.60;1.50;;;20.60;99.50;;;;;;5054995;28;20465;-89
2022/07/21 01:16:20;;;;;;;2.23;1.73;;;20.60;98.70;;;;;;5053712;28;20487;-88
2022/07/21 01:18:49;;;;;;;1.67;1.57;;;20.70;98.30;;;;;;5053833;28;20468;-89
2022/07/21 01:21:32;;;;;;;3.40;2.43;;;20.70;98.10;;;;;;5057509;28;20453;-89
2022/07/21 01:24:00;;;;;;;3.10;2.50;;;20.90;98.10;;;;;;5055015;28;21036;-87
2022/07/21 01:26:27;;;;;;;3.33;3.03;;;20.90;98.70;;;;;;5058538;28;20460;-89
2022/07/21 01:28:54;;;;;;;3.13;2.83;;;21.00;99.10;;;;;;5064971;28;20582;-88
2022/07/21 01:31:22;;;;;;;2.70;2.50;;;21.10;99.90;;;;;;5079089;28;20454;-90
2022/07/21 01:33:49;;;;;;;4.67;2.73;;;21.20;99.90;;;;;;5083825;28;20447;-89
2022/07/21 01:36:17;;;;;;;3.73;3.43;;;21.30;99.90;;;;;;5061964;28;20439;-87
2022/07/21 01:41:30;;;;;;;3.93;3.63;;;21.70;99.60;;;;;;5058577;28;21509;-88
2022/07/21 01:43:58;;;;;;;8.83;4.20;;;22.00;98.90;;;;;;5060875;28;20543;-89
2022/07/21 01:46:25;;;;;;;4.97;3.53;;;22.20;97.80;;;;;;5063874;28;20459;-88
2022/07/21 01:48:52;;;;;;;3.57;3.23;;;22.30;97.50;;;;;;5058911;28;20448;-88
2022/07/21 01:51:19;;;;;;;3.00;2.80;;;22.30;97.10;;;;;;5060341;28;20513;-87
2022/07/21 01:53:47;;;;;;;3.67;3.17;;;22.40;96.60;;;;;;5062782;28;20448;-89
2022/07/21 01:56:14;;;;;;;3.37;3.17;;;22.40;96.20;;;;;;5058103;28;20965;-87
2022/07/21 01:58:41;;;;;;;5.17;2.83;;;22.50;96.00;;;;;;5062104;28;20459;-88
2022/07/21 02:01:08;;;;;;;4.20;2.97;;;22.50;96.20;;;;;;5060968;28;20721;-88
2022/07/21 02:03:35;;;;;;;5.23;2.97;;;22.50;95.50;;;;;;5055937;28;20463;-90
2022/07/21 02:06:04;;;;;;;3.00;2.80;;;22.40;95.50;;;;;;5057432;28;20515;-88
2022/07/21 02:08:31;;;;;;;3.23;2.90;;;22.50;95.20;;;;;;5063345;28;20456;-87
2022/07/21 02:11:00;;;;;;;4.50;3.07;;;22.50;95.00;;;;;;5061723;28;20443;-87
2022/07/21 02:13:27;;;;;;;3.13;2.90;;;22.50;95.00;;;;;;5051714;28;20468;-89
2022/07/21 02:15:54;;;;;;;4.40;3.50;;;22.40;95.10;;;;;;5064336;28;20492;-87
2022/07/21 02:18:22;;;;;;;3.57;2.90;;;22.40;95.30;;;;;;5060077;28;20459;-88
2022/07/21 02:20:50;;;;;;;3.57;3.27;;;22.30;95.30;;;;;;5058490;28;20505;-88
2022/07/21 02:23:17;;;;;;;3.40;2.73;;;22.30;95.40;;;;;;5060599;28;20451;-88
2022/07/21 02:25:45;;;;;;;3.60;2.70;;;22.30;95.20;;;;;;5053340;28;20483;-87
2022/07/21 02:28:13;;;;;;;4.20;2.27;;;22.30;95.30;;;;;;5062930;28;20811;-87
2022/07/21 02:30:40;;;;;;;4.20;2.53;;;22.30;95.30;;;;;;5056287;28;20456;-87
2022/07/21 02:33:08;;;;;;;2.90;2.43;;;22.20;95.40;;;;;;5059720;28;20848;-88
2022/07/21 02:35:35;;;;;;;4.07;3.00;;;22.10;95.40;;;;;;5057019;28;20462;-87
2022/07/21 02:38:02;;;;;;;3.13;2.90;;;22.10;95.40;;;;;;5063089;28;20513;-87
2022/07/21 02:40:29;;;;;;;3.83;2.17;;;22.10;95.40;;;;;;5058249;28;20459;-87
2022/07/21 02:42:56;;;;;;;2.90;2.70;;;22.10;95.50;;;;;;5054534;28;20443;-88
2022/07/21 02:45:25;;;;;;;2.90;2.60;;;22.00;95.70;;;;;;5057731;28;20530;-89
2022/07/21 02:47:54;;;;;;;3.03;2.27;;;21.90;96.00;;;;;;5066322;28;20452;-90
2022/07/21 02:50:23;;;;;;;5.50;2.40;;;21.80;96.10;;;;;;5065927;28;20468;-90
2022/07/21 02:52:50;;;;;;;2.33;2.13;;;21.80;96.00;;;;;;5052601;28;20862;-87
2022/07/21 02:55:17;;;;;;;2.40;1.97;;;21.80;95.80;;;;;;5053583;28;20518;-88
2022/07/21 02:57:44;;;;;;;5.20;3.60;;;21.80;95.90;;;;;;5064954;28;20521;-90
2022/07/21 03:00:12;;;;;;;2.80;2.47;;;21.80;95.90;;;;;;5065322;28;20848;-88
2022/07/21 03:02:40;;;;;;;1.80;1.70;;;21.70;96.00;;;;;;5059585;28;20983;-88
2022/07/21 03:05:08;;;;;;;5.70;3.17;;;21.70;96.10;;;;;;5058398;28;20782;-89
2022/07/21 03:07:35;;;;;;;2.73;2.50;;;21.70;96.10;;;;;;5059388;28;20461;-88
2022/07/21 03:10:02;;;;;;;2.60;2.37;;;21.60;96.30;;;;;;5059732;28;20455;-89
2022/07/21 03:12:29;;;;;;;3.97;3.40;;;21.70;96.20;;;;;;5054703;28;20465;-88
2022/07/21 03:14:56;;;;;;;1.93;1.73;;;21.70;96.20;;;;;;5061523;28;20468;-90
2022/07/21 03:17:23;;;;;;;3.60;2.80;;;21.60;96.20;;;;;;5066622;28;20544;-88
2022/07/21 03:19:51;;;;;;;3.40;3.10;;;21.70;96.20;;;;;;5061383;28;20547;-89
2022/07/21 03:22:18;;;;;;;2.70;2.50;;;21.60;96.20;;;;;;5063060;28;20459;-89
2022/07/21 03:24:45;;;;;;;3.17;2.97;;;21.70;96.20;;;;;;5053111;28;20542;-89
2022/07/21 03:27:13;;;;;;;4.00;2.40;;;21.70;96.30;;;;;;5064027;28;20460;-90
2022/07/21 03:29:40;;;;;;;2.40;2.07;;;21.60;96.30;;;;;;5067895;28;20464;-88
2022/07/21 03:32:07;;;;;;;4.33;2.63;;;21.60;96.50;;;;;;5071858;28;20982;-89
2022/07/21 03:34:34;;;;;;;2.67;2.47;;;21.60;96.50;;;;;;5070460;28;20453;-88
2022/07/21 03:37:02;;;;;;;2.73;2.47;;;21.50;96.60;;;;;;5085273;28;20473;-87
2022/07/21 03:39:29;;;;;;;3.13;2.93;;;21.50;96.80;;;;;;5062306;28;20608;-89
2022/07/21 03:41:56;;;;;;;4.50;3.60;;;21.50;96.80;;;;;;5061102;28;20470;-89
2022/07/21 03:44:23;;;;;;;3.13;2.83;;;21.50;96.80;;;;;;5066560;28;20553;-88
2022/07/21 03:46:50;;;;;;;2.83;2.60;;;21.40;96.90;;;;;;5059032;28;20464;-87
2022/07/21 03:49:17;;;;;;;3.50;1.87;;;21.40;97.00;;;;;;5064934;28;20869;-89
2022/07/21 03:51:44;;;;;;;4.40;2.30;;;21.40;97.00;;;;;;5057084;28;20460;-87
2022/07/21 03:54:12;;;;;;;3.20;2.20;;;21.40;97.00;;;;;;5051857;28;20463;-87
2022/07/21 03:56:39;;;;;;;2.70;2.23;;;21.40;96.90;;;;;;5053257;28;20464;-90
2022/07/21 03:59:06;;;;;;;4.53;2.30;;;21.40;96.90;;;;;;5056382;28;20445;-87
2022/07/21 04:01:33;;;;;;;3.13;2.53;;;21.40;97.00;;;;;;5063278;28;20467;-90
2022/07/21 04:04:00;;;;;;;3.23;2.93;;;21.40;96.90;;;;;;5057562;28;20873;-88
2022/07/21 04:06:27;;;;;;;3.20;2.10;;;21.40;96.80;;;;;;5065448;28;20490;-88
2022/07/21 04:08:54;;;;;;;2.40;2.20;;;21.40;96.80;;;;;;5055717;28;20999;-90
2022/07/21 04:11:23;;;;;;;2.50;2.30;;;21.40;96.90;;;;;;5060312;28;20455;-88
2022/07/21 04:13:51;;;;;;;3.40;2.37;;;21.40;97.00;;;;;;5061629;28;20543;-89
2022/07/21 04:16:18;;;;;;;2.80;2.60;;;21.40;97.00;;;;;;5060647;28;20482;-89
2022/07/21 04:18:45;;;;;;;2.40;2.10;;;21.40;97.10;;;;;;5063095;28;20459;-90
2022/07/21 04:21:12;;;;;;;2.63;2.40;;;21.40;97.20;;;;;;5060274;28;20461;-89
2022/07/21 04:23:39;;;;;;;4.60;2.50;;;21.40;97.20;;;;;;5061631;28;20473;-87
2022/07/21 04:26:06;;;;;;;2.60;2.40;;;21.40;97.10;;;;;;5066321;28;20560;-87
2022/07/21 04:28:34;;;;;;;3.17;2.00;;;21.40;97.00;;;;;;5068825;28;20455;-86
2022/07/21 04:31:01;;;;;;;4.13;2.43;;;21.50;97.10;;;;;;5063308;28;20463;-89
2022/07/21 04:33:28;;;;;;;3.07;2.70;;;21.60;97.00;;;;;;5058647;28;20468;-88
2022/07/21 04:35:55;;;;;;;3.33;1.90;;;21.60;96.90;;;;;;5055881;28;20461;-88
2022/07/21 04:38:22;;;;;;;2.33;2.13;;;21.60;97.00;;;;;;5058417;28;20482;-89
2022/07/21 04:40:49;;;;;;;2.23;1.80;;;21.70;96.80;;;;;;5060546;28;20464;-90
2022/07/21 04:43:17;;;;;;;2.37;2.17;;;21.70;96.60;;;;;;5057132;28;20461;-89
2022/07/21 04:45:45;;;;;;;4.20;2.17;;;21.80;96.40;;;;;;5053378;28;20549;-89
2022/07/21 04:48:12;;;;;;;3.17;1.60;;;21.90;95.80;;;;;;5065533;28;21126;-87
2022/07/21 04:50:39;;;;;;;3.00;1.57;;;22.10;95.60;;;;;;5063528;28;20448;-89
2022/07/21 04:53:06;;;;;;;2.20;1.80;;;22.20;95.40;;;;;;5065988;28;20464;-88
2022/07/21 04:55:33;;;;;;;2.43;2.23;;;22.30;95.30;;;;;;5062040;28;20534;-87
2022/07/21 04:58:00;;;;;;;7.33;1.77;;;22.30;95.10;;;;;;5062538;28;20483;-86
2022/07/21 05:00:28;;;;;;;2.50;2.30;;;22.40;94.80;;;;;;5056348;28;21546;-86
2022/07/21 05:02:57;;;;;;;3.30;1.70;;;22.50;94.60;;;;;;5055660;28;20513;-87
2022/07/21 05:05:24;;;;;;;2.07;1.40;;;22.60;94.50;;;;;;5064324;28;20479;-83
2022/07/21 05:07:51;;;;;;;2.00;1.83;;;22.70;94.30;;;;;;5060595;28;20465;-85
2022/07/21 05:10:21;;;;;;;2.07;1.93;;;22.70;94.10;;;;;;5060821;28;20518;-85
2022/07/21 05:12:48;;;;;;;1.63;1.53;;;22.70;94.30;;;;;;5064250;28;20467;-85
2022/07/21 05:15:15;;;;;;;4.30;1.37;;;22.80;94.20;;;;;;5063597;28;20463;-85
2022/07/21 05:17:43;;;;;;;2.70;2.07;;;22.90;93.80;;;;;;5058682;28;20453;-85
2022/07/21 05:20:12;;;;;;;3.30;1.90;;;22.90;93.70;;;;;;5066304;28;20484;-86
2022/07/21 05:22:40;;;;;;;1.80;1.70;;;23.00;93.70;;;;;;5055947;28;20983;-85
2022/07/21 05:25:08;;;;;;;2.90;2.03;;;23.10;93.60;;;;;;5053857;28;20560;-85
2022/07/21 05:27:35;;;;;;;2.30;1.67;;;23.10;93.20;;;;;;5064557;28;21009;-85
2022/07/21 05:30:03;;;;;;;1.93;1.77;;;23.30;93.30;;;;;;5059952;28;20479;-84
2022/07/21 05:32:30;;;;;;;3.23;1.50;;;23.40;93.70;;;;;;5058125;28;20548;-86
2022/07/21 05:34:57;;;;;;;1.30;1.10;;;23.40;93.10;;;;;;5063177;28;20463;-85
2022/07/21 05:37:27;;;;;;;2.03;1.87;;;23.60;92.60;;;;;;5054961;28;20459;-84
2022/07/21 05:39:54;;;;;;;2.30;1.77;;;23.70;92.70;;;;;;5060190;28;20468;-83
2022/07/21 05:42:21;;;;;;;1.80;1.70;;;23.80;92.20;;;;;;5059919;28;20501;-86
2022/07/21 05:44:48;;;;;;;1.23;1.13;;;23.90;91.90;;;;;;5062090;28;20530;-83
2022/07/21 05:47:15;;;;;;;2.30;1.67;;;23.90;92.00;;;;;;5057457;28;20538;-86
2022/07/21 05:49:42;;;;;;;1.57;1.40;;;24.00;91.70;;;;;;5055786;28;20835;-86
2022/07/21 05:52:09;;;;;;;2.47;2.27;;;24.00;91.90;;;;;;5062615;28;20498;-84
2022/07/21 05:54:38;;;;;;;4.50;2.00;;;24.10;91.50;;;;;;5060563;28;20460;-84
2022/07/21 05:57:05;;;;;;;2.07;1.87;;;24.20;91.00;;;;;;5066502;28;20464;-84
2022/07/21 05:59:32;;;;;;;2.00;1.60;;;24.30;91.40;;;;;;5066054;28;20443;-85
2022/07/21 06:01:59;;;;;;;1.67;1.57;;;24.40;91.50;;;;;;5058315;28;20460;-84
2022/07/21 06:04:26;;;;;;;4.30;2.70;;;24.50;90.60;;;;;;5059851;28;20459;-84
2022/07/21 06:06:53;;;;;;;2.00;1.57;;;24.60;90.50;;;;;;5057076;28;20556;-84
2022/07/21 06:09:21;;;;;;;5.47;1.70;;;24.70;89.80;;;;;;5056594;28;20549;-86
2022/07/21 06:11:49;;;;;;;2.17;1.93;;;24.80;90.20;;;;;;5062268;28;20471;-84
2022/07/21 06:14:16;;;;;;;1.50;1.40;;;25.00;90.20;;;;;;5058045;28;20461;-85
2022/07/21 06:16:43;;;;;;;5.93;1.80;;;25.10;90.60;;;;;;5061789;28;20497;-83
2022/07/21 06:19:10;;;;;;;4.47;1.80;;;25.40;90.10;;;;;;5068402;28;20460;-86
2022/07/21 06:21:37;;;;;;;2.50;1.80;;;25.30;87.10;;;;;;5080784;28;20460;-84
2022/07/21 06:24:04;;;;;;;1.97;1.77;;;25.20;88.00;;;;;;5077918;28;20482;-84
2022/07/21 06:26:31;;;;;;;1.83;1.73;;;25.00;87.60;;;;;;5072023;28;20804;-88
2022/07/21 06:28:59;;;;;;;1.97;1.60;;;25.00;89.00;;;;;;5066124;28;20471;-82
2022/07/21 06:31:26;;;;;;;2.00;1.60;;;25.10;89.40;;;;;;5060762;28;20521;-83
2022/07/21 06:33:54;;;;;;;3.23;1.57;;;25.20;86.50;;;;;;5065214;28;21203;-84
2022/07/21 06:36:21;;;;;;;2.20;2.10;;;25.20;87.90;;;;;;5058541;28;20472;-83
2022/07/21 06:38:48;;;;;;;3.70;2.13;;;25.30;87.30;;;;;;5056982;28;20476;-83
2022/07/21 06:41:15;;;;;;;2.87;1.50;;;25.50;88.70;;;;;;5061706;28;20522;-83
2022/07/21 06:43:42;;;;;;;2.07;1.97;;;25.40;86.60;;;;;;5059027;28;20460;-83
2022/07/21 06:46:10;;;;;;;2.00;1.60;;;25.60;86.80;;;;;;5058864;28;20475;-83
2022/07/21 06:48:37;;;;;;;1.63;1.53;;;25.60;86.60;;;;;;5060374;28;21021;-83
2022/07/21 06:51:04;;;;;;;2.53;1.87;;;25.60;87.40;;;;;;5061176;28;20547;-83
2022/07/21 06:53:31;;;;;;;2.10;1.60;;;25.70;85.90;;;;;;5063843;28;20464;-83
2022/07/21 06:55:58;;;;;;;3.50;2.00;;;25.70;85.70;;;;;;5053571;28;20465;-83
2022/07/21 06:58:27;;;;;;;2.20;1.80;;;25.90;84.90;;;;;;5053589;28;20515;-83
2022/07/21 07:00:54;;;;;;;2.00;1.90;;;25.80;82.10;;;;;;5055423;28;20471;-83
2022/07/21 07:03:22;;;;;;;1.70;1.33;;;25.60;85.20;;;;;;5063975;28;20537;-84
2022/07/21 07:05:50;;;;;;;1.47;1.37;;;25.90;84.80;;;;;;5060847;28;20544;-84
2022/07/21 07:08:18;;;;;;;1.70;1.60;;;26.00;84.90;;;;;;5067274;28;20467;-85
2022/07/21 07:10:46;;;;;;;2.67;2.37;;;26.20;84.40;;;;;;5060206;28;20466;-83
2022/07/21 07:13:15;;;;;;;2.33;1.50;;;26.00;84.50;;;;;;5067769;28;20566;-83
2022/07/21 07:15:42;;;;;;;2.87;2.00;;;25.60;84.10;;;;;;5058338;28;20487;-83
2022/07/21 07:18:09;;;;;;;2.50;1.67;;;25.60;84.20;;;;;;5051225;28;21019;-83
2022/07/21 07:20:38;;;;;;;2.60;2.40;;;25.70;85.10;;;;;;5063031;28;20570;-85
2022/07/21 07:23:05;;;;;;;4.87;2.00;;;25.70;84.90;;;;;;5054941;28;20487;-83
2022/07/21 07:25:32;;;;;;;1.43;1.10;;;26.00;87.20;;;;;;5057505;28;20509;-83
2022/07/21 07:28:00;;;;;;;2.37;2.17;;;26.10;84.00;;;;;;5055504;28;20468;-84
2022/07/21 07:30:27;;;;;;;1.70;1.60;;;26.20;83.40;;;;;;5054754;28;20542;-83
2022/07/21 07:32:54;;;;;;;3.93;2.67;;;26.20;82.00;;;;;;5061554;28;20521;-83
2022/07/21 07:35:22;;;;;;;1.90;1.60;;;26.10;83.20;;;;;;5067377;28;20982;-84
2022/07/21 07:37:50;;;;;;;2.27;2.00;;;26.10;81.60;;;;;;5065830;28;20993;-83
2022/07/21 07:40:19;;;;;;;6.00;2.80;;;26.10;83.10;;;;;;5055303;28;20803;-83
2022/07/21 07:42:47;;;;;;;2.97;2.60;;;26.10;82.50;;;;;;5064593;28;21205;-84
2022/07/21 07:45:15;;;;;;;2.30;2.10;;;26.10;82.90;;;;;;5064993;28;20512;-83
2022/07/21 07:47:43;;;;;;;2.40;2.20;;;26.20;83.20;;;;;;5063609;28;20612;-83
2022/07/21 07:50:12;;;;;;;2.80;1.97;;;26.40;83.50;;;;;;5060362;28;21059;-83
2022/07/21 07:52:40;;;;;;;3.80;2.53;;;26.50;83.20;;;;;;5060590;28;21250;-87
2022/07/21 07:55:10;;;;;;;2.87;2.60;;;26.60;82.10;;;;;;5054354;28;22470;-83
2022/07/21 07:57:37;;;;;;;3.00;1.60;;;26.70;83.40;;;;;;5060839;28;20998;-83
2022/07/21 08:00:08;;;;;;;1.57;1.47;;;26.80;82.40;;;;;;5063598;28;20478;-83
2022/07/21 08:02:35;;;;;;;2.00;1.83;;;27.00;81.10;;;;;;5063100;28;20942;-84
2022/07/21 08:05:02;;;;;;;2.27;2.07;;;27.20;82.00;;;;;;5060068;28;21044;-83
2022/07/21 08:07:29;;;;;;;1.57;1.47;;;27.30;81.80;;;;;;5061101;28;20479;-83
2022/07/21 08:09:56;;;;;;;5.97;1.83;;;27.60;79.60;;;;;;5051826;28;20461;-83
2022/07/21 08:12:25;;;;;;;7.03;2.17;;;27.60;78.10;;;;;;5053163;28;20451;-85
2022/07/21 08:14:52;;;;;;;2.93;2.70;;;27.60;79.40;;;;;;5051576;28;20556;-83
2022/07/21 08:17:20;;;;;;;2.60;2.40;;;27.70;77.60;;;;;;5065851;28;20999;-84
2022/07/21 08:19:47;;;;;;;3.20;2.30;;;27.60;78.60;;;;;;5053065;28;20571;-83
2022/07/21 08:22:14;;;;;;;6.10;2.87;;;27.60;76.70;;;;;;5057190;28;20456;-83
2022/07/21 08:24:41;;;;;;;1.83;1.70;;;27.50;78.20;;;;;;5052955;28;20478;-84
2022/07/21 08:27:08;;;;;;;2.90;2.70;;;27.60;78.60;;;;;;5059984;28;20977;-86
2022/07/21 08:29:37;;;;;;;1.87;1.77;;;27.60;76.80;;;;;;5056504;28;20939;-86
2022/07/21 08:32:04;;;;;;;1.83;1.73;;;27.60;75.00;;;;;;5062178;28;20459;-86
2022/07/21 08:34:31;;;;;;;1.43;1.33;;;27.80;76.30;;;;;;5064574;28;20509;-86
2022/07/21 08:36:58;;;;;;;1.60;1.50;;;27.70;74.90;;;;;;5061907;28;20546;-84
2022/07/21 08:39:25;;;;;;;1.40;1.30;;;27.60;74.80;;;;;;5059153;28;20461;-85
2022/07/21 08:41:53;;;;;;;1.70;1.60;;;27.70;74.50;;;;;;5054724;28;20871;-86
2022/07/21 08:44:22;;;;;;;1.40;1.30;;;27.70;73.90;;;;;;5060401;28;20456;-86
2022/07/21 08:46:52;;;;;;;1.97;1.83;;;27.80;74.80;;;;;;5058550;28;20529;-85
2022/07/21 08:49:22;;;;;;;2.03;1.67;;;27.90;74.50;;;;;;5058905;28;20451;-87
2022/07/21 08:51:51;;;;;;;1.57;1.47;;;28.10;74.50;;;;;;5049772;28;20460;-86
2022/07/21 08:54:18;;;;;;;3.93;2.00;;;28.20;73.40;;;;;;5058130;28;20467;-85
2022/07/21 08:56:45;;;;;;;1.60;1.50;;;28.30;75.80;;;;;;5050668;28;20456;-86
2022/07/21 08:59:12;;;;;;;1.80;1.70;;;28.40;74.30;;;;;;5061737;28;20486;-87
2022/07/21 09:01:39;;;;;;;2.10;1.63;;;28.30;72.50;;;;;;5057999;28;20528;-85
2022/07/21 09:04:25;;;;;;;2.30;1.30;;;28.30;71.20;;;;;;5059239;28;20770;-86
2022/07/21 09:06:57;;;;;;;1.80;1.63;;;28.50;72.10;;;;;;5052634;28;21195;-85
2022/07/21 09:09:25;;;;;;;2.20;1.93;;;28.50;73.50;;;;;;5062159;28;20455;-85
2022/07/21 09:11:52;;;;;;;1.70;1.60;;;28.30;73.20;;;;;;5075040;28;20463;-86
2022/07/21 09:14:21;;;;;;;2.83;2.40;;;28.40;71.90;;;;;;5073026;28;20452;-85
2022/07/21 09:16:50;;;;;;;1.47;1.37;;;28.70;73.50;;;;;;5070432;28;20558;-87
2022/07/21 09:19:20;;;;;;;2.07;1.97;;;28.90;72.50;;;;;;5066172;28;20466;-86
2022/07/21 09:21:51;;;;;;;2.23;2.13;;;28.90;72.50;;;;;;5063293;28;20502;-85
2022/07/21 09:24:25;;;;;;;2.43;2.10;;;28.60;71.50;;;;;;5058323;28;20456;-86
2022/07/21 09:27:09;;;;;;;2.53;2.03;;;28.70;69.70;;;;;;5058647;28;20478;-86
2022/07/21 09:29:41;;;;;;;1.57;1.47;;;28.50;71.10;;;;;;5063627;28;20922;-85
2022/07/21 09:32:30;;;;;;;1.93;1.83;;;28.60;71.00;;;;;;5059786;28;20491;-85
2022/07/21 09:35:01;;;;;;;3.10;2.13;;;28.40;70.50;;;;;;5058628;28;20463;-86
2022/07/21 09:37:29;;;;;;;1.47;1.37;;;28.50;71.50;;;;;;5057959;28;20550;-85
2022/07/21 09:39:58;;;;;;;2.23;2.10;;;28.70;72.00;;;;;;5056380;28;21291;-85
2022/07/21 09:42:27;;;;;;;3.27;2.23;;;28.70;71.50;;;;;;5057476;28;20460;-85
2022/07/21 09:44:56;;;;;;;2.33;2.03;;;28.70;71.80;;;;;;5063002;28;20533;-86
2022/07/21 09:47:24;;;;;;;2.80;2.60;;;28.80;73.30;;;;;;5059782;28;21045;-84
2022/07/21 09:49:52;;;;;;;2.50;2.30;;;29.00;69.50;;;;;;5055999;28;20497;-87
2022/07/21 09:52:26;;;;;;;2.10;2.00;;;29.20;71.40;;;;;;5053528;28;20536;-86
2022/07/21 09:55:00;;;;;;;3.67;3.37;;;29.20;70.20;;;;;;5058574;28;20557;-86
2022/07/21 09:57:28;;;;;;;4.60;2.37;;;29.20;71.60;;;;;;5062002;28;21146;-86
2022/07/21 09:59:56;;;;;;;2.70;2.50;;;29.30;69.50;;;;;;5061588;28;20871;-86
2022/07/21 10:02:25;;;;;;;3.07;2.30;;;29.40;66.70;;;;;;5063795;28;20459;-86
2022/07/21 10:04:57;;;;;;;2.60;2.23;;;29.20;70.60;;;;;;5058551;28;20867;-86
2022/07/21 10:07:24;;;;;;;1.93;1.80;;;29.20;67.70;;;;;;5059982;28;20642;-86
2022/07/21 10:09:52;;;;;;;2.47;2.27;;;29.20;70.80;;;;;;5053800;28;20464;-86
2022/07/21 10:12:21;;;;;;;2.80;2.60;;;29.00;68.70;;;;;;5058988;28;20605;-86
2022/07/21 10:14:48;;;;;;;2.40;2.23;;;29.20;72.10;;;;;;5060158;28;20612;-86
2022/07/21 10:17:16;;;;;;;3.43;3.10;;;29.40;71.80;;;;;;5052414;28;21119;-86
2022/07/21 10:19:54;;;;;;;2.33;2.13;;;29.50;67.70;;;;;;5055061;28;20471;-86
2022/07/21 10:22:31;;;;;;;4.50;3.53;;;29.90;65.00;;;;;;5055370;28;20468;-86
2022/07/21 10:24:59;;;;;;;3.90;3.60;;;30.30;69.40;;;;;;5056137;28;20456;-86
2022/07/21 10:27:27;;;;;;;2.53;2.33;;;30.20;68.60;;;;;;5057011;28;20550;-86
2022/07/21 10:30:00;;;;;;;2.40;1.60;;;30.10;64.30;;;;;;5060879;28;20520;-86
2022/07/21 10:32:31;;;;;;;2.83;2.63;;;30.20;64.20;;;;;;5062565;28;21314;-85
2022/07/21 10:34:59;;;;;;;2.83;1.60;;;30.30;65.60;;;;;;5055295;28;20640;-86
2022/07/21 10:37:47;;;;;;;4.37;1.83;;;30.30;67.80;;;;;;5055529;28;20475;-86
2022/07/21 10:40:36;;;;;;;2.67;1.57;;;30.30;65.50;;;;;;5061131;28;20543;-86
2022/07/21 10:43:39;;;;;;;2.03;1.93;;;30.30;63.40;;;;;;5058084;28;20593;-85
2022/07/21 10:46:37;;;;;;;1.90;1.80;;;30.10;63.30;;;;;;5057801;28;20990;-87
2022/07/21 10:49:06;;;;;;;2.17;2.00;;;29.90;62.70;;;;;;5061181;28;20456;-86
2022/07/21 10:51:35;;;;;;;2.90;2.33;;;30.10;65.90;;;;;;5059840;28;20438;-86
2022/07/21 10:54:25;;;;;;;2.93;2.10;;;30.10;64.80;;;;;;5062681;28;20444;-86
2022/07/21 10:57:27;;;;;;;2.10;1.70;;;30.10;64.50;;;;;;5053650;28;20496;-85
2022/07/21 11:00:30;;;;;;;2.00;1.77;;;30.10;65.80;;;;;;5051200;28;20467;-87
2022/07/21 11:02:59;;;;;;;1.93;1.40;;;30.30;64.40;;;;;;4976582;28;20898;-85
2022/07/21 11:05:29;;;;;;;2.10;2.00;;;30.50;63.80;;;;;;4969865;28;20477;-86
2022/07/21 11:08:21;;;;;;;2.60;2.17;;;30.50;65.40;;;;;;5017651;28;20581;-86
2022/07/21 11:10:50;;;;;;;4.13;3.83;;;30.60;65.40;;;;;;5056390;28;20480;-85
2022/07/21 11:13:19;;;;;;;2.60;2.10;;;30.50;64.00;;;;;;5056289;28;20982;-84
2022/07/21 11:15:55;;;;;;;2.27;2.17;;;30.80;62.60;;;;;;5056363;28;20498;-85
2022/07/21 11:18:24;;;;;;;3.53;2.33;;;30.70;62.20;;;;;;5061103;28;20862;-84
2022/07/21 11:21:24;;;;;;;2.03;1.87;;;31.10;62.30;;;;;;5063038;28;20644;-85
2022/07/21 11:23:51;;;;;;;4.20;3.60;;;30.80;60.40;;;;;;5014731;28;20529;-86
2022/07/21 11:26:20;;;;;;;2.20;2.00;;;30.50;60.40;;;;;;5057874;28;20549;-84
2022/07/21 11:28:47;;;;;;;2.20;2.07;;;30.40;61.70;;;;;;5060327;28;20897;-85
2022/07/21 11:31:20;;;;;;;2.67;2.47;;;30.50;60.80;;;;;;5059732;28;20522;-86
2022/07/21 11:33:48;;;;;;;2.40;2.30;;;30.70;61.10;;;;;;5060963;28;20486;-85
2022/07/21 11:36:26;;;;;;;2.43;2.23;;;31.20;62.50;;;;;;5064642;28;20517;-85
2022/07/21 11:39:02;;;;;;;2.20;2.00;;;31.30;59.70;;;;;;5066746;28;20444;-86
2022/07/21 11:41:29;;;;;;;2.47;2.27;;;30.90;60.00;;;;;;5057493;28;20534;-85
2022/07/21 11:43:56;;;;;;;3.10;2.60;;;31.00;57.80;;;;;;5066535;28;21103;-84
2022/07/21 11:46:24;;;;;;;2.40;2.20;;;30.90;59.70;;;;;;5064922;28;20463;-85
2022/07/21 11:49:02;;;;;;;2.63;2.43;;;30.60;61.60;;;;;;5067717;28;20467;-84
2022/07/21 11:51:29;;;;;;;2.37;2.27;;;30.00;64.70;;;;;;5056771;28;20492;-85
2022/07/21 11:53:56;;;;;;;3.00;2.80;;;29.90;64.90;;;;;;5062219;28;20449;-85
2022/07/21 11:56:23;;;;;;;2.87;2.77;;;30.10;64.10;;;;;;5061669;28;20498;-84
2022/07/21 11:58:51;;;;;;;2.70;2.50;;;30.30;64.90;;;;;;5082209;28;20612;-85
2022/07/21 12:01:18;;;;;;;2.67;2.47;;;30.50;64.70;;;;;;5079365;28;20448;-84
2022/07/21 12:03:51;;;;;;;3.80;2.37;;;30.80;63.20;;;;;;5081341;28;20513;-84
2022/07/21 12:06:19;;;;;;;3.40;2.83;;;30.70;63.60;;;;;;5053750;28;20518;-86
2022/07/21 12:08:46;;;;;;;2.60;2.40;;;30.90;62.40;;;;;;5059396;28;20468;-84
2022/07/21 12:11:13;;;;;;;2.70;2.50;;;30.90;62.90;;;;;;5057532;28;20525;-86
2022/07/21 12:14:02;;;;;;;3.50;3.20;;;30.70;64.70;;;;;;5065534;28;20455;-85
2022/07/21 12:16:29;;;;;;;3.27;3.07;;;30.60;63.80;;;;;;5064563;28;20479;-84
2022/07/21 12:19:16;;;;;;;3.87;3.57;;;30.80;65.00;;;;;;5071018;28;20447;-84
2022/07/21 12:21:47;;;;;;;5.07;3.60;;;30.90;63.30;;;;;;5061724;28;20472;-85
2022/07/21 12:24:15;;;;;;;3.47;3.17;;;30.80;61.80;;;;;;5059184;28;20971;-84
2022/07/21 12:26:42;;;;;;;2.70;2.50;;;30.90;59.70;;;;;;5059033;28;20452;-85
2022/07/21 12:29:09;;;;;;;2.47;2.27;;;31.10;59.30;;;;;;5060564;28;20476;-84
2022/07/21 12:31:37;;;;;;;2.93;2.73;;;31.10;59.20;;;;;;5050965;28;20500;-86
2022/07/21 12:34:18;;;;;;;2.47;2.20;;;31.10;58.00;;;;;;5058992;28;20448;-85
2022/07/21 12:36:46;;;;;;;2.40;2.20;;;31.10;58.00;;;;;;5058129;28;21185;-84
2022/07/21 12:42:08;;;;;;;2.17;2.00;;;31.20;59.60;;;;;;5056682;28;20984;-85
2022/07/21 12:44:36;;;;;;;1.87;1.77;;;31.30;60.00;;;;;;5062676;28;20456;-85
2022/07/21 12:47:18;;;;;;;2.50;1.93;;;31.10;58.90;;;;;;5057045;28;20460;-85
2022/07/21 12:49:57;;;;;;;1.57;1.47;;;31.00;58.90;;;;;;5060346;28;20468;-85
2022/07/21 12:52:25;;;;;;;3.40;2.87;;;30.90;58.90;;;;;;5061610;28;20447;-85
2022/07/21 12:54:52;;;;;;;2.37;2.17;;;31.10;60.30;;;;;;5056682;28;21019;-86
2022/07/21 12:57:19;;;;;;;2.97;2.77;;;31.30;58.90;;;;;;5063378;28;20504;-84
2022/07/21 12:59:46;;;;;;;3.00;2.10;;;31.30;59.10;;;;;;5058015;28;20463;-84
2022/07/21 13:02:13;;;;;;;3.47;2.07;;;31.50;58.60;;;;;;5065894;28;20535;-84